SCJO

Cañal Bajo Carlos - Hott Siebert Airport

Osorno, Chile
METAR SCJO 201300Z 04005KT 9999 SCT050 12/07 Q1020
Observed Flight Rules
Oct-20 @ 13:00 UTC (22 minutes ago) Visual Flight Rules
Wind Visibility Clouds
40° at 5 knots 10,000+ meters
  • Scattered at 5,000' AGL
Temperatures Readings
Current 12°C / 54°F
Dewpoint 7°C / 45°F
Humidity 72%
Altimeter 30.12" Hg
Pressure 1020 hPa
Elevation 65
METAR SCJO 201300Z 04005KT 9999 SCT050 12/07 Q1020
Observed Flight Rules
Oct-20 @ 13:00 UTC
(22 minutes ago)
VFR
Wind Visibility
40° at 5 knots 10,000+ meters
Clouds
  • Scattered at 5,000' AGL
Temperature Dewpoint
12°C / 54°F 7°C / 45°F
Humidity Altimeter Pressure
72% 30.12" Hg 1020 hPa